sensor_id;sensor_type;location;lat;lon;timestamp;pressure;altitude;pressure_sealevel;temperature;humidity
76726;BME280;65651;53.154;17.916;2023-06-22T00:00:19;101217.39;;;18.21;79.81
76726;BME280;65651;53.154;17.916;2023-06-22T00:03:08;101219.45;;;18.19;79.92
76726;BME280;65651;53.154;17.916;2023-06-22T00:05:35;101224.27;;;18.19;80.13
76726;BME280;65651;53.154;17.916;2023-06-22T00:08:03;101228.25;;;18.21;80.09
76726;BME280;65651;53.154;17.916;2023-06-22T00:10:37;101232.40;;;18.23;80.14
76726;BME280;65651;53.154;17.916;2023-06-22T00:13:07;101231.92;;;18.24;80.20
76726;BME280;65651;53.154;17.916;2023-06-22T00:15:38;101231.52;;;18.24;80.23
76726;BME280;65651;53.154;17.916;2023-06-22T00:18:06;101235.50;;;18.24;80.36
76726;BME280;65651;53.154;17.916;2023-06-22T00:20:37;101235.66;;;18.24;80.36
76726;BME280;65651;53.154;17.916;2023-06-22T00:23:06;101234.80;;;18.25;80.35
76726;BME280;65651;53.154;17.916;2023-06-22T00:25:39;101236.48;;;18.26;80.37
76726;BME280;65651;53.154;17.916;2023-06-22T00:28:07;101236.34;;;18.28;80.37
76726;BME280;65651;53.154;17.916;2023-06-22T00:30:35;101242.11;;;18.31;80.41
76726;BME280;65651;53.154;17.916;2023-06-22T00:33:03;101244.41;;;18.35;80.27
76726;BME280;65651;53.154;17.916;2023-06-22T00:35:30;101250.14;;;18.39;80.32
76726;BME280;65651;53.154;17.916;2023-06-22T00:37:59;101256.23;;;18.43;80.31
76726;BME280;65651;53.154;17.916;2023-06-22T00:40:32;101257.73;;;18.45;80.37
76726;BME280;65651;53.154;17.916;2023-06-22T00:42:59;101257.02;;;18.46;80.34
76726;BME280;65651;53.154;17.916;2023-06-22T00:45:27;101257.48;;;18.47;80.48
76726;BME280;65651;53.154;17.916;2023-06-22T00:47:57;101257.44;;;18.48;80.37
76726;BME280;65651;53.154;17.916;2023-06-22T00:50:30;101257.78;;;18.47;80.54
76726;BME280;65651;53.154;17.916;2023-06-22T00:53:07;101256.73;;;18.49;80.56
76726;BME280;65651;53.154;17.916;2023-06-22T00:55:42;101258.92;;;18.50;80.61
76726;BME280;65651;53.154;17.916;2023-06-22T00:58:11;101258.54;;;18.51;80.62
76726;BME280;65651;53.154;17.916;2023-06-22T01:00:40;101258.89;;;18.51;80.55
76726;BME280;65651;53.154;17.916;2023-06-22T01:03:08;101260.60;;;18.50;80.62
76726;BME280;65651;53.154;17.916;2023-06-22T01:05:41;101262.85;;;18.49;80.48
76726;BME280;65651;53.154;17.916;2023-06-22T01:10:43;101260.88;;;18.49;80.15
76726;BME280;65651;53.154;17.916;2023-06-22T01:13:22;101261.95;;;18.48;79.90
76726;BME280;65651;53.154;17.916;2023-06-22T01:15:58;101261.43;;;18.46;79.72
76726;BME280;65651;53.154;17.916;2023-06-22T01:18:31;101257.07;;;18.43;79.55
76726;BME280;65651;53.154;17.916;2023-06-22T01:21:08;101257.05;;;18.39;79.51
76726;BME280;65651;53.154;17.916;2023-06-22T01:26:43;101258.62;;;18.25;79.27
76726;BME280;65651;53.154;17.916;2023-06-22T01:29:18;101263.15;;;18.19;79.26
76726;BME280;65651;53.154;17.916;2023-06-22T01:31:51;101263.14;;;18.12;79.32
76726;BME280;65651;53.154;17.916;2023-06-22T01:34:21;101263.08;;;18.05;79.31
76726;BME280;65651;53.154;17.916;2023-06-22T01:36:49;101260.35;;;17.98;79.15
76726;BME280;65651;53.154;17.916;2023-06-22T01:39:18;101265.25;;;17.90;79.31
76726;BME280;65651;53.154;17.916;2023-06-22T01:41:47;101261.07;;;17.83;79.22
76726;BME280;65651;53.154;17.916;2023-06-22T01:44:16;101259.20;;;17.74;79.31
76726;BME280;65651;53.154;17.916;2023-06-22T01:46:45;101261.18;;;17.66;79.25
76726;BME280;65651;53.154;17.916;2023-06-22T01:49:16;101271.36;;;17.58;79.32
76726;BME280;65651;53.154;17.916;2023-06-22T01:51:44;101267.94;;;17.49;79.29
76726;BME280;65651;53.154;17.916;2023-06-22T01:54:16;101261.74;;;17.40;79.41
76726;BME280;65651;53.154;17.916;2023-06-22T01:56:50;101261.26;;;17.32;79.42
76726;BME280;65651;53.154;17.916;2023-06-22T01:59:28;101257.73;;;17.25;79.61
76726;BME280;65651;53.154;17.916;2023-06-22T02:02:12;101259.61;;;17.19;79.67
76726;BME280;65651;53.154;17.916;2023-06-22T02:05:00;101254.94;;;17.11;79.77
76726;BME280;65651;53.154;17.916;2023-06-22T02:07:33;101259.70;;;17.04;79.84
76726;BME280;65651;53.154;17.916;2023-06-22T02:10:03;101264.20;;;16.98;79.93
76726;BME280;65651;53.154;17.916;2023-06-22T02:12:31;101265.98;;;16.93;79.95
76726;BME280;65651;53.154;17.916;2023-06-22T02:15:01;101268.23;;;16.87;80.03
76726;BME280;65651;53.154;17.916;2023-06-22T02:17:29;101268.94;;;16.81;80.17
76726;BME280;65651;53.154;17.916;2023-06-22T02:20:04;101275.97;;;16.80;80.24
76726;BME280;65651;53.154;17.916;2023-06-22T02:22:36;101283.73;;;16.77;80.36
76726;BME280;65651;53.154;17.916;2023-06-22T02:25:06;101288.15;;;16.75;80.35
76726;BME280;65651;53.154;17.916;2023-06-22T02:27:34;101291.34;;;16.74;80.41
76726;BME280;65651;53.154;17.916;2023-06-22T02:30:04;101291.02;;;16.74;80.45
76726;BME280;65651;53.154;17.916;2023-06-22T02:32:32;101292.92;;;16.76;80.49
76726;BME280;65651;53.154;17.916;2023-06-22T02:35:01;101294.52;;;16.80;80.47
76726;BME280;65651;53.154;17.916;2023-06-22T02:37:32;101292.23;;;16.80;80.50
76726;BME280;65651;53.154;17.916;2023-06-22T02:39:59;101292.75;;;16.83;80.36
76726;BME280;65651;53.154;17.916;2023-06-22T02:42:32;101289.68;;;16.85;80.27
76726;BME280;65651;53.154;17.916;2023-06-22T02:45:00;101294.80;;;16.90;80.08
76726;BME280;65651;53.154;17.916;2023-06-22T02:47:28;101294.86;;;16.94;80.05
76726;BME280;65651;53.154;17.916;2023-06-22T02:49:55;101292.60;;;16.99;79.97
76726;BME280;65651;53.154;17.916;2023-06-22T02:52:26;101294.36;;;17.04;79.86
76726;BME280;65651;53.154;17.916;2023-06-22T02:54:53;101293.10;;;17.09;79.69
76726;BME280;65651;53.154;17.916;2023-06-22T02:57:26;101294.05;;;17.14;79.64
76726;BME280;65651;53.154;17.916;2023-06-22T02:59:53;101293.44;;;17.18;79.45
76726;BME280;65651;53.154;17.916;2023-06-22T03:02:22;101298.36;;;17.23;79.41
76726;BME280;65651;53.154;17.916;2023-06-22T03:04:50;101298.73;;;17.26;79.36
76726;BME280;65651;53.154;17.916;2023-06-22T03:07:21;101302.05;;;17.31;79.22
76726;BME280;65651;53.154;17.916;2023-06-22T03:09:48;101302.89;;;17.34;79.17
76726;BME280;65651;53.154;17.916;2023-06-22T03:12:15;101309.90;;;17.38;79.08
76726;BME280;65651;53.154;17.916;2023-06-22T03:14:49;101313.27;;;17.42;78.98
76726;BME280;65651;53.154;17.916;2023-06-22T03:17:17;101318.96;;;17.46;78.92
76726;BME280;65651;53.154;17.916;2023-06-22T03:19:45;101317.55;;;17.52;78.91
76726;BME280;65651;53.154;17.916;2023-06-22T03:22:12;101313.66;;;17.58;78.79
76726;BME280;65651;53.154;17.916;2023-06-22T03:24:39;101319.54;;;17.63;78.61
76726;BME280;65651;53.154;17.916;2023-06-22T03:27:07;101320.10;;;17.69;78.54
76726;BME280;65651;53.154;17.916;2023-06-22T03:29:34;101318.23;;;17.77;78.41
76726;BME280;65651;53.154;17.916;2023-06-22T03:32:02;101322.80;;;17.86;78.35
76726;BME280;65651;53.154;17.916;2023-06-22T03:34:32;101320.07;;;17.99;78.02
76726;BME280;65651;53.154;17.916;2023-06-22T03:37:08;101320.83;;;18.33;77.61
76726;BME280;65651;53.154;17.916;2023-06-22T03:39:35;101324.44;;;18.79;77.06
76726;BME280;65651;53.154;17.916;2023-06-22T03:42:03;101331.88;;;19.16;76.51
76726;BME280;65651;53.154;17.916;2023-06-22T03:44:30;101335.82;;;19.36;76.09
76726;BME280;65651;53.154;17.916;2023-06-22T03:46:59;101339.42;;;19.56;75.67
76726;BME280;65651;53.154;17.916;2023-06-22T03:49:26;101340.64;;;19.87;75.18
76726;BME280;65651;53.154;17.916;2023-06-22T03:51:53;101344.58;;;20.23;74.66
76726;BME280;65651;53.154;17.916;2023-06-22T03:54:21;101338.52;;;20.74;73.88
76726;BME280;65651;53.154;17.916;2023-06-22T03:56:48;101338.12;;;21.20;73.15
76726;BME280;65651;53.154;17.916;2023-06-22T03:59:15;101335.52;;;21.70;72.34
76726;BME280;65651;53.154;17.916;2023-06-22T04:01:43;101336.55;;;22.27;71.46
76726;BME280;65651;53.154;17.916;2023-06-22T04:04:14;101337.48;;;22.85;70.42
76726;BME280;65651;53.154;17.916;2023-06-22T04:06:44;101343.01;;;23.44;69.30
76726;BME280;65651;53.154;17.916;2023-06-22T04:09:11;101337.69;;;24.20;68.40
76726;BME280;65651;53.154;17.916;2023-06-22T04:11:40;101336.35;;;24.82;67.04
76726;BME280;65651;53.154;17.916;2023-06-22T04:14:07;101335.23;;;25.04;66.56
76726;BME280;65651;53.154;17.916;2023-06-22T04:16:35;101337.26;;;25.56;65.47
76726;BME280;65651;53.154;17.916;2023-06-22T04:19:02;101338.20;;;26.28;63.93
76726;BME280;65651;53.154;17.916;2023-06-22T04:21:29;101343.73;;;27.02;62.71
76726;BME280;65651;53.154;17.916;2023-06-22T04:23:57;101342.98;;;27.74;61.33
76726;BME280;65651;53.154;17.916;2023-06-22T04:26:24;101342.76;;;28.34;59.76
76726;BME280;65651;53.154;17.916;2023-06-22T04:28:52;101342.45;;;28.99;58.61
76726;BME280;65651;53.154;17.916;2023-06-22T04:31:22;101336.50;;;29.61;56.75
76726;BME280;65651;53.154;17.916;2023-06-22T04:34:05;101326.34;;;30.04;55.13
76726;BME280;65651;53.154;17.916;2023-06-22T04:36:38;101330.18;;;30.49;53.62
76726;BME280;65651;53.154;17.916;2023-06-22T04:39:10;101329.80;;;30.98;52.03
76726;BME280;65651;53.154;17.916;2023-06-22T04:41:40;101333.71;;;31.46;50.31
76726;BME280;65651;53.154;17.916;2023-06-22T04:44:16;101341.42;;;31.91;48.45
76726;BME280;65651;53.154;17.916;2023-06-22T04:46:57;101346.28;;;32.37;47.04
76726;BME280;65651;53.154;17.916;2023-06-22T04:49:30;101347.35;;;32.80;45.00
76726;BME280;65651;53.154;17.916;2023-06-22T04:52:03;101343.09;;;32.98;43.61
76726;BME280;65651;53.154;17.916;2023-06-22T04:54:32;101342.10;;;33.25;42.50
76726;BME280;65651;53.154;17.916;2023-06-22T04:57:05;101344.85;;;33.47;40.83
76726;BME280;65651;53.154;17.916;2023-06-22T04:59:43;101341.15;;;33.74;39.78
76726;BME280;65651;53.154;17.916;2023-06-22T05:02:16;101346.44;;;34.09;38.31
76726;BME280;65651;53.154;17.916;2023-06-22T05:04:43;101342.57;;;34.51;37.59
76726;BME280;65651;53.154;17.916;2023-06-22T05:07:12;101346.98;;;34.81;36.20
76726;BME280;65651;53.154;17.916;2023-06-22T05:09:40;101353.70;;;35.07;35.46
76726;BME280;65651;53.154;17.916;2023-06-22T05:12:08;101358.32;;;34.95;34.61
76726;BME280;65651;53.154;17.916;2023-06-22T05:14:36;101356.63;;;35.05;33.88
76726;BME280;65651;53.154;17.916;2023-06-22T05:17:03;101344.94;;;35.30;33.75
76726;BME280;65651;53.154;17.916;2023-06-22T05:19:34;101347.44;;;35.67;32.50
76726;BME280;65651;53.154;17.916;2023-06-22T05:22:01;101348.14;;;36.00;32.28
76726;BME280;65651;53.154;17.916;2023-06-22T05:24:28;101360.05;;;36.27;31.37
76726;BME280;65651;53.154;17.916;2023-06-22T05:26:56;101363.11;;;36.52;31.13
76726;BME280;65651;53.154;17.916;2023-06-22T05:29:23;101365.08;;;37.08;30.17
76726;BME280;65651;53.154;17.916;2023-06-22T05:31:50;101361.60;;;37.63;29.72
76726;BME280;65651;53.154;17.916;2023-06-22T05:34:18;101362.56;;;38.05;28.95
76726;BME280;65651;53.154;17.916;2023-06-22T05:36:45;101364.88;;;37.96;28.29
76726;BME280;65651;53.154;17.916;2023-06-22T05:39:15;101366.80;;;37.96;27.85
76726;BME280;65651;53.154;17.916;2023-06-22T05:41:44;101362.65;;;37.92;27.29
76726;BME280;65651;53.154;17.916;2023-06-22T05:44:11;101359.09;;;37.81;27.38
76726;BME280;65651;53.154;17.916;2023-06-22T05:46:43;101353.73;;;37.94;27.08
76726;BME280;65651;53.154;17.916;2023-06-22T05:49:14;101349.60;;;38.11;26.82
76726;BME280;65651;53.154;17.916;2023-06-22T05:51:42;101350.93;;;38.57;26.43
76726;BME280;65651;53.154;17.916;2023-06-22T05:54:10;101357.55;;;38.67;26.21
76726;BME280;65651;53.154;17.916;2023-06-22T05:56:37;101350.52;;;39.10;25.70
76726;BME280;65651;53.154;17.916;2023-06-22T05:59:07;101351.54;;;39.28;24.97
76726;BME280;65651;53.154;17.916;2023-06-22T06:01:35;101353.30;;;38.91;25.06
76726;BME280;65651;53.154;17.916;2023-06-22T06:04:06;101349.10;;;39.26;24.82
76726;BME280;65651;53.154;17.916;2023-06-22T06:06:35;101349.48;;;39.78;24.23
76726;BME280;65651;53.154;17.916;2023-06-22T06:09:05;101348.61;;;40.18;23.69
76726;BME280;65651;53.154;17.916;2023-06-22T06:11:36;101339.37;;;40.50;23.27
76726;BME280;65651;53.154;17.916;2023-06-22T06:14:03;101334.23;;;40.18;22.69
76726;BME280;65651;53.154;17.916;2023-06-22T06:16:30;101333.83;;;40.14;22.93
76726;BME280;65651;53.154;17.916;2023-06-22T06:18:59;101343.65;;;40.91;22.28
76726;BME280;65651;53.154;17.916;2023-06-22T06:21:26;101350.63;;;41.39;21.88
76726;BME280;65651;53.154;17.916;2023-06-22T06:23:54;101357.24;;;41.50;21.23
76726;BME280;65651;53.154;17.916;2023-06-22T06:26:21;101362.38;;;41.44;21.00
76726;BME280;65651;53.154;17.916;2023-06-22T06:28:57;101360.36;;;41.53;20.80
76726;BME280;65651;53.154;17.916;2023-06-22T06:31:25;101360.00;;;41.82;20.47
76726;BME280;65651;53.154;17.916;2023-06-22T06:33:55;101352.73;;;42.05;20.33
76726;BME280;65651;53.154;17.916;2023-06-22T06:36:25;101348.77;;;42.24;20.10
76726;BME280;65651;53.154;17.916;2023-06-22T06:38:53;101349.48;;;42.60;19.90
76726;BME280;65651;53.154;17.916;2023-06-22T06:41:21;101354.02;;;43.20;19.53
76726;BME280;65651;53.154;17.916;2023-06-22T06:43:50;101352.16;;;43.39;19.08
76726;BME280;65651;53.154;17.916;2023-06-22T06:46:19;101353.13;;;43.34;18.61
76726;BME280;65651;53.154;17.916;2023-06-22T06:48:46;101353.29;;;43.35;18.34
76726;BME280;65651;53.154;17.916;2023-06-22T06:51:14;101345.63;;;43.12;18.13
76726;BME280;65651;53.154;17.916;2023-06-22T06:53:41;101346.05;;;43.15;18.31
76726;BME280;65651;53.154;17.916;2023-06-22T06:56:11;101338.64;;;43.45;18.19
76726;BME280;65651;53.154;17.916;2023-06-22T06:58:42;101346.22;;;43.87;17.73
76726;BME280;65651;53.154;17.916;2023-06-22T07:01:09;101351.69;;;43.88;17.98
76726;BME280;65651;53.154;17.916;2023-06-22T07:03:36;101345.77;;;43.81;17.91
76726;BME280;65651;53.154;17.916;2023-06-22T07:06:04;101342.58;;;44.07;17.80
76726;BME280;65651;53.154;17.916;2023-06-22T07:08:31;101344.61;;;44.22;17.80
76726;BME280;65651;53.154;17.916;2023-06-22T07:10:59;101343.96;;;44.32;17.27
76726;BME280;65651;53.154;17.916;2023-06-22T07:13:28;101347.04;;;44.10;17.04
76726;BME280;65651;53.154;17.916;2023-06-22T07:15:55;101353.77;;;44.12;17.12
76726;BME280;65651;53.154;17.916;2023-06-22T07:18:23;101354.11;;;44.45;17.11
76726;BME280;65651;53.154;17.916;2023-06-22T07:20:51;101354.05;;;44.69;16.94
76726;BME280;65651;53.154;17.916;2023-06-22T07:23:20;101348.29;;;44.64;16.37
76726;BME280;65651;53.154;17.916;2023-06-22T07:25:47;101353.58;;;44.19;16.39
76726;BME280;65651;53.154;17.916;2023-06-22T07:28:14;101358.19;;;44.21;16.74
76726;BME280;65651;53.154;17.916;2023-06-22T07:30:42;101363.86;;;44.35;16.67
76726;BME280;65651;53.154;17.916;2023-06-22T07:33:11;101363.83;;;44.37;16.64
76726;BME280;65651;53.154;17.916;2023-06-22T07:35:39;101361.98;;;44.05;16.75
76726;BME280;65651;53.154;17.916;2023-06-22T07:38:06;101361.33;;;43.70;16.86
76726;BME280;65651;53.154;17.916;2023-06-22T07:40:33;101363.76;;;43.49;16.81
76726;BME280;65651;53.154;17.916;2023-06-22T07:43:02;101364.71;;;43.67;17.11
76726;BME280;65651;53.154;17.916;2023-06-22T07:45:30;101360.73;;;43.52;17.17
76726;BME280;65651;53.154;17.916;2023-06-22T07:48:01;101362.92;;;43.26;17.09
76726;BME280;65651;53.154;17.916;2023-06-22T07:50:28;101361.42;;;43.64;17.08
76726;BME280;65651;53.154;17.916;2023-06-22T07:52:55;101362.43;;;43.94;16.80
76726;BME280;65651;53.154;17.916;2023-06-22T07:55:23;101360.00;;;44.10;16.69
76726;BME280;65651;53.154;17.916;2023-06-22T07:57:50;101358.34;;;44.01;16.31
76726;BME280;65651;53.154;17.916;2023-06-22T08:00:19;101362.70;;;43.22;16.67
76726;BME280;65651;53.154;17.916;2023-06-22T08:02:47;101365.23;;;43.05;17.08
76726;BME280;65651;53.154;17.916;2023-06-22T08:05:15;101365.98;;;43.06;17.11
76726;BME280;65651;53.154;17.916;2023-06-22T08:07:42;101369.06;;;43.06;17.19
76726;BME280;65651;53.154;17.916;2023-06-22T08:10:12;101370.52;;;43.34;17.31
76726;BME280;65651;53.154;17.916;2023-06-22T08:12:40;101371.48;;;43.71;17.20
76726;BME280;65651;53.154;17.916;2023-06-22T08:15:08;101377.70;;;44.08;16.93
76726;BME280;65651;53.154;17.916;2023-06-22T08:17:38;101381.39;;;44.25;16.53
76726;BME280;65651;53.154;17.916;2023-06-22T08:20:07;101384.48;;;44.61;16.67
76726;BME280;65651;53.154;17.916;2023-06-22T08:22:55;101380.33;;;44.63;16.15
76726;BME280;65651;53.154;17.916;2023-06-22T08:25:45;101371.52;;;44.44;16.10
76726;BME280;65651;53.154;17.916;2023-06-22T08:28:15;101365.09;;;44.23;15.93
76726;BME280;65651;53.154;17.916;2023-06-22T08:30:42;101369.02;;;43.85;16.36
76726;BME280;65651;53.154;17.916;2023-06-22T08:33:10;101366.40;;;43.80;16.25
76726;BME280;65651;53.154;17.916;2023-06-22T08:35:38;101369.42;;;43.36;16.51
76726;BME280;65651;53.154;17.916;2023-06-22T08:38:08;101370.27;;;43.06;16.75
76726;BME280;65651;53.154;17.916;2023-06-22T08:40:35;101369.40;;;43.46;16.80
76726;BME280;65651;53.154;17.916;2023-06-22T08:43:03;101368.59;;;43.82;16.56
76726;BME280;65651;53.154;17.916;2023-06-22T08:45:31;101359.56;;;43.68;16.56
76726;BME280;65651;53.154;17.916;2023-06-22T08:47:59;101363.27;;;43.98;16.37
76726;BME280;65651;53.154;17.916;2023-06-22T08:50:45;101356.35;;;44.26;15.79
76726;BME280;65651;53.154;17.916;2023-06-22T08:53:16;101358.59;;;44.11;15.94
76726;BME280;65651;53.154;17.916;2023-06-22T08:55:44;101361.25;;;43.81;16.11
76726;BME280;65651;53.154;17.916;2023-06-22T08:58:12;101363.36;;;43.84;16.20
76726;BME280;65651;53.154;17.916;2023-06-22T09:00:42;101360.98;;;44.00;15.79
76726;BME280;65651;53.154;17.916;2023-06-22T09:03:09;101357.90;;;44.12;15.59
76726;BME280;65651;53.154;17.916;2023-06-22T09:05:37;101360.09;;;44.21;15.40
76726;BME280;65651;53.154;17.916;2023-06-22T09:08:08;101359.30;;;44.22;15.37
76726;BME280;65651;53.154;17.916;2023-06-22T09:10:39;101358.83;;;44.25;15.27
76726;BME280;65651;53.154;17.916;2023-06-22T09:13:09;101361.80;;;44.24;14.92
76726;BME280;65651;53.154;17.916;2023-06-22T09:15:40;101359.30;;;44.10;15.23
76726;BME280;65651;53.154;17.916;2023-06-22T09:18:11;101343.63;;;44.15;14.69
76726;BME280;65651;53.154;17.916;2023-06-22T09:20:41;101338.88;;;44.20;14.92
76726;BME280;65651;53.154;17.916;2023-06-22T09:23:11;101337.27;;;44.14;14.90
76726;BME280;65651;53.154;17.916;2023-06-22T09:25:38;101335.53;;;43.90;14.97
76726;BME280;65651;53.154;17.916;2023-06-22T09:28:07;101332.35;;;43.43;15.07
76726;BME280;65651;53.154;17.916;2023-06-22T09:30:36;101333.33;;;43.37;15.22
76726;BME280;65651;53.154;17.916;2023-06-22T09:33:16;101327.81;;;43.69;15.26
76726;BME280;65651;53.154;17.916;2023-06-22T09:35:52;101328.10;;;43.86;15.05
76726;BME280;65651;53.154;17.916;2023-06-22T09:38:44;101326.98;;;42.80;15.34
76726;BME280;65651;53.154;17.916;2023-06-22T09:41:20;101331.10;;;42.22;15.82
76726;BME280;65651;53.154;17.916;2023-06-22T09:44:08;101329.98;;;42.50;15.97
76726;BME280;65651;53.154;17.916;2023-06-22T09:46:53;101328.67;;;42.87;15.90
76726;BME280;65651;53.154;17.916;2023-06-22T09:49:28;101320.70;;;42.95;15.60
76726;BME280;65651;53.154;17.916;2023-06-22T09:52:04;101322.39;;;42.57;15.58
76726;BME280;65651;53.154;17.916;2023-06-22T09:54:32;101323.27;;;42.32;15.63
76726;BME280;65651;53.154;17.916;2023-06-22T09:57:09;101324.77;;;42.11;15.81
76726;BME280;65651;53.154;17.916;2023-06-22T09:59:37;101328.77;;;41.85;16.15
76726;BME280;65651;53.154;17.916;2023-06-22T10:02:07;101330.35;;;41.54;16.30
76726;BME280;65651;53.154;17.916;2023-06-22T10:04:35;101329.91;;;41.23;16.40
76726;BME280;65651;53.154;17.916;2023-06-22T10:07:02;101329.29;;;41.01;16.98
76726;BME280;65651;53.154;17.916;2023-06-22T10:09:35;101324.42;;;40.68;17.19
76726;BME280;65651;53.154;17.916;2023-06-22T10:12:18;101320.27;;;39.04;17.78
76726;BME280;65651;53.154;17.916;2023-06-22T10:14:46;101325.34;;;37.01;19.49
76726;BME280;65651;53.154;17.916;2023-06-22T10:17:26;101325.26;;;35.58;20.54
76726;BME280;65651;53.154;17.916;2023-06-22T10:20:20;101324.56;;;34.20;21.54
76726;BME280;65651;53.154;17.916;2023-06-22T10:23:02;101321.38;;;33.13;23.00
76726;BME280;65651;53.154;17.916;2023-06-22T10:25:36;101321.00;;;32.74;24.00
76726;BME280;65651;53.154;17.916;2023-06-22T10:28:10;101319.66;;;32.46;24.59
76726;BME280;65651;53.154;17.916;2023-06-22T10:30:53;101325.05;;;32.00;25.38
76726;BME280;65651;53.154;17.916;2023-06-22T10:33:20;101321.47;;;31.54;25.76
76726;BME280;65651;53.154;17.916;2023-06-22T10:35:56;101319.46;;;31.30;26.43
76726;BME280;65651;53.154;17.916;2023-06-22T10:38:28;101317.05;;;31.03;26.96
76726;BME280;65651;53.154;17.916;2023-06-22T10:41:00;101321.06;;;30.59;27.65
76726;BME280;65651;53.154;17.916;2023-06-22T10:43:41;101316.00;;;30.40;27.86
76726;BME280;65651;53.154;17.916;2023-06-22T10:46:10;101318.07;;;30.21;28.10
76726;BME280;65651;53.154;17.916;2023-06-22T10:48:40;101316.55;;;29.91;28.94
76726;BME280;65651;53.154;17.916;2023-06-22T10:51:07;101316.27;;;29.74;29.59
76726;BME280;65651;53.154;17.916;2023-06-22T10:53:36;101314.45;;;29.63;29.64
76726;BME280;65651;53.154;17.916;2023-06-22T10:56:07;101310.73;;;29.40;29.75
76726;BME280;65651;53.154;17.916;2023-06-22T10:58:36;101310.69;;;29.16;29.81
76726;BME280;65651;53.154;17.916;2023-06-22T11:01:03;101307.55;;;29.03;30.15
76726;BME280;65651;53.154;17.916;2023-06-22T11:03:33;101302.77;;;28.97;30.36
76726;BME280;65651;53.154;17.916;2023-06-22T11:06:01;101305.14;;;28.97;30.96
76726;BME280;65651;53.154;17.916;2023-06-22T11:08:28;101307.27;;;29.04;31.42
76726;BME280;65651;53.154;17.916;2023-06-22T11:10:56;101308.21;;;29.07;31.21
76726;BME280;65651;53.154;17.916;2023-06-22T11:13:23;101307.03;;;29.02;31.30
76726;BME280;65651;53.154;17.916;2023-06-22T11:15:54;101308.14;;;28.93;31.43
76726;BME280;65651;53.154;17.916;2023-06-22T11:18:25;101308.95;;;28.95;31.31
76726;BME280;65651;53.154;17.916;2023-06-22T11:20:57;101310.32;;;28.97;30.95
76726;BME280;65651;53.154;17.916;2023-06-22T11:23:38;101308.41;;;28.91;31.11
76726;BME280;65651;53.154;17.916;2023-06-22T11:26:05;101305.04;;;29.00;30.83
76726;BME280;65651;53.154;17.916;2023-06-22T11:28:36;101305.73;;;29.01;30.71
76726;BME280;65651;53.154;17.916;2023-06-22T11:31:14;101309.23;;;28.96;31.04
76726;BME280;65651;53.154;17.916;2023-06-22T11:33:42;101305.54;;;28.99;31.34
76726;BME280;65651;53.154;17.916;2023-06-22T11:36:16;101301.50;;;29.06;31.27
76726;BME280;65651;53.154;17.916;2023-06-22T11:38:43;101303.42;;;29.09;31.28
76726;BME280;65651;53.154;17.916;2023-06-22T11:41:13;101305.84;;;29.10;31.53
76726;BME280;65651;53.154;17.916;2023-06-22T11:43:41;101302.23;;;29.04;31.55
76726;BME280;65651;53.154;17.916;2023-06-22T11:46:08;101306.39;;;28.97;31.70
76726;BME280;65651;53.154;17.916;2023-06-22T11:48:35;101302.13;;;28.91;30.98
76726;BME280;65651;53.154;17.916;2023-06-22T11:51:03;101294.84;;;28.76;30.83
76726;BME280;65651;53.154;17.916;2023-06-22T11:53:34;101299.94;;;28.66;31.05
76726;BME280;65651;53.154;17.916;2023-06-22T11:56:02;101300.02;;;28.71;31.15
76726;BME280;65651;53.154;17.916;2023-06-22T11:58:29;101292.04;;;28.74;30.92
76726;BME280;65651;53.154;17.916;2023-06-22T12:00:56;101297.80;;;28.74;30.94
76726;BME280;65651;53.154;17.916;2023-06-22T12:03:23;101293.02;;;28.57;31.26
76726;BME280;65651;53.154;17.916;2023-06-22T12:05:53;101295.73;;;28.35;31.52
76726;BME280;65651;53.154;17.916;2023-06-22T12:08:20;101286.81;;;28.20;31.51
76726;BME280;65651;53.154;17.916;2023-06-22T12:10:49;101282.86;;;28.07;31.55
76726;BME280;65651;53.154;17.916;2023-06-22T12:13:17;101278.09;;;28.13;31.92
76726;BME280;65651;53.154;17.916;2023-06-22T12:15:45;101282.11;;;28.20;32.13
76726;BME280;65651;53.154;17.916;2023-06-22T12:18:13;101271.80;;;28.19;32.04
76726;BME280;65651;53.154;17.916;2023-06-22T12:20:43;101268.95;;;28.18;32.15
76726;BME280;65651;53.154;17.916;2023-06-22T12:23:11;101268.10;;;28.16;32.12
76726;BME280;65651;53.154;17.916;2023-06-22T12:25:39;101277.19;;;28.25;31.91
76726;BME280;65651;53.154;17.916;2023-06-22T12:28:06;101267.33;;;28.35;31.95
76726;BME280;65651;53.154;17.916;2023-06-22T12:30:33;101261.45;;;28.44;31.94
76726;BME280;65651;53.154;17.916;2023-06-22T12:33:01;101264.45;;;28.50;31.90
76726;BME280;65651;53.154;17.916;2023-06-22T12:35:28;101270.48;;;28.47;31.82
76726;BME280;65651;53.154;17.916;2023-06-22T12:37:55;101260.70;;;28.42;31.72
76726;BME280;65651;53.154;17.916;2023-06-22T12:40:23;101256.82;;;28.36;31.80
76726;BME280;65651;53.154;17.916;2023-06-22T12:42:51;101254.73;;;28.35;31.94
76726;BME280;65651;53.154;17.916;2023-06-22T12:45:18;101255.35;;;28.35;32.10
76726;BME280;65651;53.154;17.916;2023-06-22T12:47:47;101251.96;;;28.43;31.98
76726;BME280;65651;53.154;17.916;2023-06-22T12:50:16;101253.18;;;28.43;31.97
76726;BME280;65651;53.154;17.916;2023-06-22T12:52:43;101248.55;;;28.44;31.71
76726;BME280;65651;53.154;17.916;2023-06-22T12:55:11;101242.79;;;28.42;31.88
76726;BME280;65651;53.154;17.916;2023-06-22T12:57:38;101233.89;;;28.42;31.70
76726;BME280;65651;53.154;17.916;2023-06-22T13:00:06;101236.95;;;28.36;31.81